sensor_id;sensor_type;location;lat;lon;timestamp;P1;durP1;ratioP1;P2;durP2;ratioP2
67757;SDS011;54562;47.620;18.786;2022-11-13T00:00:18;30.60;;;18.10;;
67757;SDS011;54562;47.620;18.786;2022-11-13T00:03:35;34.50;;;18.80;;
67757;SDS011;54562;47.620;18.786;2022-11-13T00:06:51;32.60;;;19.00;;
67757;SDS011;54562;47.620;18.786;2022-11-13T00:10:04;32.70;;;19.10;;
67757;SDS011;54562;47.620;18.786;2022-11-13T00:13:21;32.00;;;18.90;;
67757;SDS011;54562;47.620;18.786;2022-11-13T00:16:34;31.90;;;17.50;;
67757;SDS011;54562;47.620;18.786;2022-11-13T00:19:50;31.80;;;17.20;;
67757;SDS011;54562;47.620;18.786;2022-11-13T00:23:06;30.60;;;17.20;;
67757;SDS011;54562;47.620;18.786;2022-11-13T00:26:15;33.70;;;18.80;;
67757;SDS011;54562;47.620;18.786;2022-11-13T00:29:33;35.50;;;21.00;;
67757;SDS011;54562;47.620;18.786;2022-11-13T00:32:41;35.40;;;20.50;;
67757;SDS011;54562;47.620;18.786;2022-11-13T00:35:49;37.30;;;21.20;;
67757;SDS011;54562;47.620;18.786;2022-11-13T00:39:06;38.60;;;22.10;;
67757;SDS011;54562;47.620;18.786;2022-11-13T00:42:15;39.30;;;22.50;;
67757;SDS011;54562;47.620;18.786;2022-11-13T00:45:23;40.30;;;21.70;;
67757;SDS011;54562;47.620;18.786;2022-11-13T00:48:31;38.90;;;23.00;;
67757;SDS011;54562;47.620;18.786;2022-11-13T00:51:39;38.70;;;22.20;;
67757;SDS011;54562;47.620;18.786;2022-11-13T00:54:47;44.70;;;24.80;;
67757;SDS011;54562;47.620;18.786;2022-11-13T00:57:55;46.70;;;25.50;;
67757;SDS011;54562;47.620;18.786;2022-11-13T01:01:09;41.40;;;24.00;;
67757;SDS011;54562;47.620;18.786;2022-11-13T01:04:19;43.80;;;25.30;;
67757;SDS011;54562;47.620;18.786;2022-11-13T01:07:27;47.00;;;25.90;;
67757;SDS011;54562;47.620;18.786;2022-11-13T01:10:40;49.40;;;26.00;;
67757;SDS011;54562;47.620;18.786;2022-11-13T01:13:58;42.60;;;23.50;;
67757;SDS011;54562;47.620;18.786;2022-11-13T01:17:05;40.30;;;23.40;;
67757;SDS011;54562;47.620;18.786;2022-11-13T01:20:14;43.10;;;23.10;;
67757;SDS011;54562;47.620;18.786;2022-11-13T01:23:31;47.20;;;25.30;;
67757;SDS011;54562;47.620;18.786;2022-11-13T01:26:47;40.70;;;22.50;;
67757;SDS011;54562;47.620;18.786;2022-11-13T01:30:04;45.00;;;24.50;;
67757;SDS011;54562;47.620;18.786;2022-11-13T01:33:14;45.00;;;25.00;;
67757;SDS011;54562;47.620;18.786;2022-11-13T01:36:30;46.90;;;25.80;;
67757;SDS011;54562;47.620;18.786;2022-11-13T01:39:47;42.40;;;23.60;;
67757;SDS011;54562;47.620;18.786;2022-11-13T01:43:16;43.20;;;24.20;;
67757;SDS011;54562;47.620;18.786;2022-11-13T01:46:32;47.20;;;25.10;;
67757;SDS011;54562;47.620;18.786;2022-11-13T01:49:44;48.10;;;25.60;;
67757;SDS011;54562;47.620;18.786;2022-11-13T01:52:54;48.20;;;26.20;;
67757;SDS011;54562;47.620;18.786;2022-11-13T01:56:02;48.30;;;25.90;;
67757;SDS011;54562;47.620;18.786;2022-11-13T01:59:22;44.40;;;25.90;;
67757;SDS011;54562;47.620;18.786;2022-11-13T02:02:32;44.30;;;25.60;;
67757;SDS011;54562;47.620;18.786;2022-11-13T02:05:40;49.20;;;25.80;;
67757;SDS011;54562;47.620;18.786;2022-11-13T02:08:56;51.90;;;27.60;;
67757;SDS011;54562;47.620;18.786;2022-11-13T02:12:07;49.50;;;28.40;;
67757;SDS011;54562;47.620;18.786;2022-11-13T02:15:27;52.00;;;27.30;;
67757;SDS011;54562;47.620;18.786;2022-11-13T02:18:40;52.60;;;27.60;;
67757;SDS011;54562;47.620;18.786;2022-11-13T02:22:04;51.70;;;28.70;;
67757;SDS011;54562;47.620;18.786;2022-11-13T02:25:22;48.90;;;27.10;;
67757;SDS011;54562;47.620;18.786;2022-11-13T02:28:41;47.70;;;26.40;;
67757;SDS011;54562;47.620;18.786;2022-11-13T02:31:58;44.90;;;25.00;;
67757;SDS011;54562;47.620;18.786;2022-11-13T02:35:18;48.30;;;27.40;;
67757;SDS011;54562;47.620;18.786;2022-11-13T02:38:33;51.40;;;29.80;;
67757;SDS011;54562;47.620;18.786;2022-11-13T02:41:50;39.40;;;22.10;;
67757;SDS011;54562;47.620;18.786;2022-11-13T02:44:58;42.60;;;26.40;;
67757;SDS011;54562;47.620;18.786;2022-11-13T02:48:07;47.00;;;23.20;;
67757;SDS011;54562;47.620;18.786;2022-11-13T02:51:16;49.20;;;26.70;;
67757;SDS011;54562;47.620;18.786;2022-11-13T02:54:31;46.40;;;24.90;;
67757;SDS011;54562;47.620;18.786;2022-11-13T02:57:39;43.10;;;24.60;;
67757;SDS011;54562;47.620;18.786;2022-11-13T03:00:55;40.60;;;23.30;;
67757;SDS011;54562;47.620;18.786;2022-11-13T03:04:14;39.90;;;23.60;;
67757;SDS011;54562;47.620;18.786;2022-11-13T03:07:22;38.70;;;22.20;;
67757;SDS011;54562;47.620;18.786;2022-11-13T03:10:30;42.90;;;23.40;;
67757;SDS011;54562;47.620;18.786;2022-11-13T03:13:47;46.60;;;25.10;;
67757;SDS011;54562;47.620;18.786;2022-11-13T03:16:55;46.30;;;25.60;;
67757;SDS011;54562;47.620;18.786;2022-11-13T03:20:11;50.60;;;27.90;;
67757;SDS011;54562;47.620;18.786;2022-11-13T03:26:34;48.70;;;27.00;;
67757;SDS011;54562;47.620;18.786;2022-11-13T03:29:45;48.20;;;25.90;;
67757;SDS011;54562;47.620;18.786;2022-11-13T03:33:01;47.20;;;25.40;;
67757;SDS011;54562;47.620;18.786;2022-11-13T03:36:09;44.40;;;24.40;;
67757;SDS011;54562;47.620;18.786;2022-11-13T03:39:26;46.10;;;24.20;;
67757;SDS011;54562;47.620;18.786;2022-11-13T03:42:33;44.90;;;24.20;;
67757;SDS011;54562;47.620;18.786;2022-11-13T03:45:42;45.60;;;25.30;;
67757;SDS011;54562;47.620;18.786;2022-11-13T03:48:51;42.60;;;23.40;;
67757;SDS011;54562;47.620;18.786;2022-11-13T03:52:07;45.90;;;25.10;;
67757;SDS011;54562;47.620;18.786;2022-11-13T03:55:26;47.90;;;25.10;;
67757;SDS011;54562;47.620;18.786;2022-11-13T03:58:42;44.80;;;25.90;;
67757;SDS011;54562;47.620;18.786;2022-11-13T04:01:53;51.20;;;27.40;;
67757;SDS011;54562;47.620;18.786;2022-11-13T04:05:12;45.60;;;25.50;;
67757;SDS011;54562;47.620;18.786;2022-11-13T04:08:26;45.80;;;24.90;;
67757;SDS011;54562;47.620;18.786;2022-11-13T04:11:43;40.30;;;22.40;;
67757;SDS011;54562;47.620;18.786;2022-11-13T04:14:59;40.50;;;22.70;;
67757;SDS011;54562;47.620;18.786;2022-11-13T04:18:15;42.30;;;22.40;;
67757;SDS011;54562;47.620;18.786;2022-11-13T04:21:31;41.60;;;20.90;;
67757;SDS011;54562;47.620;18.786;2022-11-13T04:24:47;37.20;;;21.30;;
67757;SDS011;54562;47.620;18.786;2022-11-13T04:27:56;40.80;;;21.90;;
67757;SDS011;54562;47.620;18.786;2022-11-13T04:31:04;37.90;;;20.50;;
67757;SDS011;54562;47.620;18.786;2022-11-13T04:34:20;31.20;;;18.20;;
67757;SDS011;54562;47.620;18.786;2022-11-13T04:37:28;56.80;;;20.10;;
67757;SDS011;54562;47.620;18.786;2022-11-13T04:40:47;43.50;;;17.90;;
67757;SDS011;54562;47.620;18.786;2022-11-13T04:44:24;53.60;;;19.00;;
67757;SDS011;54562;47.620;18.786;2022-11-13T04:47:32;39.80;;;17.70;;
67757;SDS011;54562;47.620;18.786;2022-11-13T04:50:48;30.40;;;17.10;;
67757;SDS011;54562;47.620;18.786;2022-11-13T04:54:04;27.30;;;14.60;;
67757;SDS011;54562;47.620;18.786;2022-11-13T04:57:12;36.00;;;15.40;;
67757;SDS011;54562;47.620;18.786;2022-11-13T05:00:22;26.80;;;15.70;;
67757;SDS011;54562;47.620;18.786;2022-11-13T05:03:30;23.50;;;14.30;;
67757;SDS011;54562;47.620;18.786;2022-11-13T05:06:47;26.30;;;14.60;;
67757;SDS011;54562;47.620;18.786;2022-11-13T05:10:06;24.00;;;14.40;;
67757;SDS011;54562;47.620;18.786;2022-11-13T05:13:24;25.50;;;14.10;;
67757;SDS011;54562;47.620;18.786;2022-11-13T05:16:43;26.90;;;14.70;;
67757;SDS011;54562;47.620;18.786;2022-11-13T05:19:59;27.10;;;14.80;;
67757;SDS011;54562;47.620;18.786;2022-11-13T05:23:07;24.90;;;14.10;;
67757;SDS011;54562;47.620;18.786;2022-11-13T05:26:23;23.50;;;14.50;;
67757;SDS011;54562;47.620;18.786;2022-11-13T05:29:39;28.50;;;15.90;;
67757;SDS011;54562;47.620;18.786;2022-11-13T05:32:56;34.20;;;18.00;;
67757;SDS011;54562;47.620;18.786;2022-11-13T05:36:13;30.30;;;16.80;;
67757;SDS011;54562;47.620;18.786;2022-11-13T05:39:30;34.20;;;18.10;;
67757;SDS011;54562;47.620;18.786;2022-11-13T05:42:46;32.60;;;17.30;;
67757;SDS011;54562;47.620;18.786;2022-11-13T05:46:05;29.60;;;15.40;;
67757;SDS011;54562;47.620;18.786;2022-11-13T05:49:14;32.90;;;16.40;;
67757;SDS011;54562;47.620;18.786;2022-11-13T05:52:30;30.30;;;16.50;;
67757;SDS011;54562;47.620;18.786;2022-11-13T05:55:38;35.50;;;18.80;;
67757;SDS011;54562;47.620;18.786;2022-11-13T05:58:56;36.10;;;19.60;;
67757;SDS011;54562;47.620;18.786;2022-11-13T06:02:13;34.60;;;19.40;;
67757;SDS011;54562;47.620;18.786;2022-11-13T06:05:23;41.80;;;20.00;;
67757;SDS011;54562;47.620;18.786;2022-11-13T06:08:31;38.10;;;20.50;;
67757;SDS011;54562;47.620;18.786;2022-11-13T06:11:39;35.70;;;19.60;;
67757;SDS011;54562;47.620;18.786;2022-11-13T06:14:47;35.40;;;19.80;;
67757;SDS011;54562;47.620;18.786;2022-11-13T06:17:55;31.10;;;18.50;;
67757;SDS011;54562;47.620;18.786;2022-11-13T06:21:05;29.40;;;17.40;;
67757;SDS011;54562;47.620;18.786;2022-11-13T06:24:14;40.20;;;20.90;;
67757;SDS011;54562;47.620;18.786;2022-11-13T06:27:22;39.50;;;20.50;;
67757;SDS011;54562;47.620;18.786;2022-11-13T06:30:46;34.90;;;18.60;;
67757;SDS011;54562;47.620;18.786;2022-11-13T06:33:55;40.00;;;20.70;;
67757;SDS011;54562;47.620;18.786;2022-11-13T06:37:04;48.70;;;23.70;;
67757;SDS011;54562;47.620;18.786;2022-11-13T06:40:13;46.00;;;23.70;;
67757;SDS011;54562;47.620;18.786;2022-11-13T06:43:22;47.50;;;23.50;;
67757;SDS011;54562;47.620;18.786;2022-11-13T06:46:31;49.80;;;25.50;;
67757;SDS011;54562;47.620;18.786;2022-11-13T06:49:39;45.90;;;22.80;;
67757;SDS011;54562;47.620;18.786;2022-11-13T06:52:46;47.60;;;23.90;;
67757;SDS011;54562;47.620;18.786;2022-11-13T06:55:55;45.60;;;22.00;;
67757;SDS011;54562;47.620;18.786;2022-11-13T06:59:04;52.80;;;23.40;;
67757;SDS011;54562;47.620;18.786;2022-11-13T07:02:12;54.00;;;24.90;;
67757;SDS011;54562;47.620;18.786;2022-11-13T07:05:20;54.40;;;25.80;;
67757;SDS011;54562;47.620;18.786;2022-11-13T07:08:28;59.10;;;25.20;;
67757;SDS011;54562;47.620;18.786;2022-11-13T07:11:36;64.60;;;24.90;;
67757;SDS011;54562;47.620;18.786;2022-11-13T07:14:44;54.10;;;25.30;;
67757;SDS011;54562;47.620;18.786;2022-11-13T07:17:52;48.40;;;21.40;;
67757;SDS011;54562;47.620;18.786;2022-11-13T07:21:10;61.70;;;23.20;;
67757;SDS011;54562;47.620;18.786;2022-11-13T07:24:28;46.50;;;24.50;;
67757;SDS011;54562;47.620;18.786;2022-11-13T07:27:36;48.60;;;25.20;;
67757;SDS011;54562;47.620;18.786;2022-11-13T07:30:52;53.10;;;25.00;;
67757;SDS011;54562;47.620;18.786;2022-11-13T07:34:02;48.20;;;24.30;;
67757;SDS011;54562;47.620;18.786;2022-11-13T07:37:18;73.10;;;29.90;;
67757;SDS011;54562;47.620;18.786;2022-11-13T07:40:26;71.70;;;31.00;;
67757;SDS011;54562;47.620;18.786;2022-11-13T07:43:35;51.90;;;28.00;;
67757;SDS011;54562;47.620;18.786;2022-11-13T07:46:43;57.20;;;30.20;;
67757;SDS011;54562;47.620;18.786;2022-11-13T07:49:51;86.60;;;31.00;;
67757;SDS011;54562;47.620;18.786;2022-11-13T07:53:11;69.40;;;25.00;;
67757;SDS011;54562;47.620;18.786;2022-11-13T07:56:20;55.10;;;22.00;;
67757;SDS011;54562;47.620;18.786;2022-11-13T07:59:29;39.70;;;19.70;;
67757;SDS011;54562;47.620;18.786;2022-11-13T08:02:54;78.00;;;22.30;;
67757;SDS011;54562;47.620;18.786;2022-11-13T08:06:06;46.20;;;21.50;;
67757;SDS011;54562;47.620;18.786;2022-11-13T08:09:14;57.60;;;23.70;;
67757;SDS011;54562;47.620;18.786;2022-11-13T08:12:22;101.90;;;25.10;;
67757;SDS011;54562;47.620;18.786;2022-11-13T08:15:32;79.50;;;24.00;;
67757;SDS011;54562;47.620;18.786;2022-11-13T08:18:40;74.60;;;21.80;;
67757;SDS011;54562;47.620;18.786;2022-11-13T08:21:48;88.50;;;22.00;;
67757;SDS011;54562;47.620;18.786;2022-11-13T08:24:57;43.30;;;19.80;;
67757;SDS011;54562;47.620;18.786;2022-11-13T08:28:05;58.70;;;21.40;;
67757;SDS011;54562;47.620;18.786;2022-11-13T08:31:17;60.00;;;21.80;;
67757;SDS011;54562;47.620;18.786;2022-11-13T08:34:25;38.30;;;22.20;;
67757;SDS011;54562;47.620;18.786;2022-11-13T08:37:34;41.70;;;22.60;;
67757;SDS011;54562;47.620;18.786;2022-11-13T08:40:50;46.30;;;23.50;;
67757;SDS011;54562;47.620;18.786;2022-11-13T08:44:02;46.60;;;22.10;;
67757;SDS011;54562;47.620;18.786;2022-11-13T08:47:12;48.20;;;23.00;;
67757;SDS011;54562;47.620;18.786;2022-11-13T08:50:23;42.90;;;23.60;;
67757;SDS011;54562;47.620;18.786;2022-11-13T08:53:34;42.50;;;24.90;;
67757;SDS011;54562;47.620;18.786;2022-11-13T08:56:42;44.00;;;23.70;;
67757;SDS011;54562;47.620;18.786;2022-11-13T09:00:00;43.60;;;22.80;;
67757;SDS011;54562;47.620;18.786;2022-11-13T09:03:12;41.30;;;22.20;;
67757;SDS011;54562;47.620;18.786;2022-11-13T09:06:28;39.10;;;21.00;;
67757;SDS011;54562;47.620;18.786;2022-11-13T09:09:36;35.60;;;20.80;;
67757;SDS011;54562;47.620;18.786;2022-11-13T09:12:45;32.40;;;19.70;;
67757;SDS011;54562;47.620;18.786;2022-11-13T09:15:56;35.50;;;19.20;;
67757;SDS011;54562;47.620;18.786;2022-11-13T09:19:04;33.90;;;19.80;;
67757;SDS011;54562;47.620;18.786;2022-11-13T09:22:14;35.20;;;20.20;;
67757;SDS011;54562;47.620;18.786;2022-11-13T09:25:22;34.50;;;19.50;;
67757;SDS011;54562;47.620;18.786;2022-11-13T09:28:34;33.30;;;19.30;;
67757;SDS011;54562;47.620;18.786;2022-11-13T09:31:42;32.90;;;18.60;;
67757;SDS011;54562;47.620;18.786;2022-11-13T09:34:50;30.30;;;18.00;;
67757;SDS011;54562;47.620;18.786;2022-11-13T09:37:59;30.30;;;18.60;;
67757;SDS011;54562;47.620;18.786;2022-11-13T09:41:21;35.20;;;18.90;;
67757;SDS011;54562;47.620;18.786;2022-11-13T09:44:45;29.90;;;18.00;;
67757;SDS011;54562;47.620;18.786;2022-11-13T09:47:58;30.90;;;18.20;;
67757;SDS011;54562;47.620;18.786;2022-11-13T09:51:14;30.50;;;19.00;;
67757;SDS011;54562;47.620;18.786;2022-11-13T09:54:24;31.60;;;18.50;;
67757;SDS011;54562;47.620;18.786;2022-11-13T09:57:50;28.50;;;17.30;;
67757;SDS011;54562;47.620;18.786;2022-11-13T10:04:23;28.90;;;16.50;;
67757;SDS011;54562;47.620;18.786;2022-11-13T10:07:43;27.40;;;17.10;;
67757;SDS011;54562;47.620;18.786;2022-11-13T10:11:20;28.80;;;17.30;;
67757;SDS011;54562;47.620;18.786;2022-11-13T10:14:46;26.70;;;17.70;;
67757;SDS011;54562;47.620;18.786;2022-11-13T10:18:03;27.60;;;17.20;;
67757;SDS011;54562;47.620;18.786;2022-11-13T10:21:23;27.30;;;16.80;;
67757;SDS011;54562;47.620;18.786;2022-11-13T10:24:41;27.20;;;17.20;;
67757;SDS011;54562;47.620;18.786;2022-11-13T10:27:55;28.40;;;17.20;;
67757;SDS011;54562;47.620;18.786;2022-11-13T10:31:26;27.60;;;17.10;;
67757;SDS011;54562;47.620;18.786;2022-11-13T10:34:34;30.50;;;17.00;;
67757;SDS011;54562;47.620;18.786;2022-11-13T10:37:47;28.90;;;17.40;;
67757;SDS011;54562;47.620;18.786;2022-11-13T10:41:13;26.20;;;15.90;;
67757;SDS011;54562;47.620;18.786;2022-11-13T10:44:31;24.10;;;15.20;;
67757;SDS011;54562;47.620;18.786;2022-11-13T10:47:44;26.90;;;16.60;;
67757;SDS011;54562;47.620;18.786;2022-11-13T10:51:25;28.20;;;16.20;;
67757;SDS011;54562;47.620;18.786;2022-11-13T10:54:35;25.00;;;15.70;;
67757;SDS011;54562;47.620;18.786;2022-11-13T10:58:12;26.60;;;16.10;;
67757;SDS011;54562;47.620;18.786;2022-11-13T11:01:23;26.50;;;15.70;;
67757;SDS011;54562;47.620;18.786;2022-11-13T11:04:32;24.60;;;15.20;;
67757;SDS011;54562;47.620;18.786;2022-11-13T11:07:41;23.50;;;15.30;;
67757;SDS011;54562;47.620;18.786;2022-11-13T11:10:58;23.10;;;14.70;;
67757;SDS011;54562;47.620;18.786;2022-11-13T11:14:27;25.40;;;14.20;;
67757;SDS011;54562;47.620;18.786;2022-11-13T11:17:48;24.60;;;14.40;;
67757;SDS011;54562;47.620;18.786;2022-11-13T11:21:04;25.70;;;14.80;;
67757;SDS011;54562;47.620;18.786;2022-11-13T11:24:17;26.10;;;15.60;;
67757;SDS011;54562;47.620;18.786;2022-11-13T11:27:34;27.00;;;15.80;;
67757;SDS011;54562;47.620;18.786;2022-11-13T11:30:51;28.60;;;16.40;;
67757;SDS011;54562;47.620;18.786;2022-11-13T11:34:13;29.20;;;16.10;;
67757;SDS011;54562;47.620;18.786;2022-11-13T11:37:38;27.90;;;15.70;;
67757;SDS011;54562;47.620;18.786;2022-11-13T11:40:59;29.80;;;16.30;;
67757;SDS011;54562;47.620;18.786;2022-11-13T11:44:25;25.80;;;15.20;;
67757;SDS011;54562;47.620;18.786;2022-11-13T11:47:39;26.60;;;15.60;;
67757;SDS011;54562;47.620;18.786;2022-11-13T11:50:53;30.70;;;17.70;;
67757;SDS011;54562;47.620;18.786;2022-11-13T11:54:18;24.60;;;15.30;;
67757;SDS011;54562;47.620;18.786;2022-11-13T11:57:46;27.90;;;15.80;;
67757;SDS011;54562;47.620;18.786;2022-11-13T12:04:50;27.30;;;16.90;;
67757;SDS011;54562;47.620;18.786;2022-11-13T12:08:18;27.00;;;16.80;;
67757;SDS011;54562;47.620;18.786;2022-11-13T12:11:40;29.60;;;16.30;;
67757;SDS011;54562;47.620;18.786;2022-11-13T12:15:07;28.90;;;16.00;;
67757;SDS011;54562;47.620;18.786;2022-11-13T12:18:29;28.30;;;16.50;;
67757;SDS011;54562;47.620;18.786;2022-11-13T12:22:01;29.60;;;18.50;;
67757;SDS011;54562;47.620;18.786;2022-11-13T12:25:22;34.90;;;18.80;;
67757;SDS011;54562;47.620;18.786;2022-11-13T12:28:40;38.90;;;16.60;;
67757;SDS011;54562;47.620;18.786;2022-11-13T12:32:01;30.20;;;17.20;;
67757;SDS011;54562;47.620;18.786;2022-11-13T12:35:15;29.20;;;16.60;;
67757;SDS011;54562;47.620;18.786;2022-11-13T12:38:37;30.50;;;17.70;;
67757;SDS011;54562;47.620;18.786;2022-11-13T12:41:57;28.50;;;17.40;;
67757;SDS011;54562;47.620;18.786;2022-11-13T12:45:15;23.60;;;15.50;;
67757;SDS011;54562;47.620;18.786;2022-11-13T12:48:33;24.00;;;14.20;;
67757;SDS011;54562;47.620;18.786;2022-11-13T12:52:00;25.10;;;14.50;;
67757;SDS011;54562;47.620;18.786;2022-11-13T12:55:26;24.80;;;15.10;;
67757;SDS011;54562;47.620;18.786;2022-11-13T12:58:56;25.10;;;14.60;;
67757;SDS011;54562;47.620;18.786;2022-11-13T13:02:42;22.30;;;13.10;;
67757;SDS011;54562;47.620;18.786;2022-11-13T13:06:22;26.40;;;15.00;;
67757;SDS011;54562;47.620;18.786;2022-11-13T13:09:51;24.80;;;14.50;;
67757;SDS011;54562;47.620;18.786;2022-11-13T13:13:12;22.50;;;13.70;;
67757;SDS011;54562;47.620;18.786;2022-11-13T13:16:33;24.90;;;13.10;;
67757;SDS011;54562;47.620;18.786;2022-11-13T13:19:59;26.40;;;13.80;;
67757;SDS011;54562;47.620;18.786;2022-11-13T13:23:13;22.20;;;13.30;;
67757;SDS011;54562;47.620;18.786;2022-11-13T13:26:50;22.10;;;13.30;;
67757;SDS011;54562;47.620;18.786;2022-11-13T13:29:59;23.70;;;13.00;;
67757;SDS011;54562;47.620;18.786;2022-11-13T13:33:33;22.00;;;12.40;;
67757;SDS011;54562;47.620;18.786;2022-11-13T13:36:53;23.70;;;13.20;;
67757;SDS011;54562;47.620;18.786;2022-11-13T13:40:19;21.40;;;12.70;;
67757;SDS011;54562;47.620;18.786;2022-11-13T13:43:58;19.20;;;12.50;;
67757;SDS011;54562;47.620;18.786;2022-11-13T13:47:35;21.60;;;11.70;;
67757;SDS011;54562;47.620;18.786;2022-11-13T13:50:47;21.60;;;11.50;;
67757;SDS011;54562;47.620;18.786;2022-11-13T13:53:59;19.30;;;10.70;;
67757;SDS011;54562;47.620;18.786;2022-11-13T13:57:14;21.60;;;11.20;;
67757;SDS011;54562;47.620;18.786;2022-11-13T14:00:23;17.50;;;10.70;;
67757;SDS011;54562;47.620;18.786;2022-11-13T14:03:40;18.40;;;10.20;;
67757;SDS011;54562;47.620;18.786;2022-11-13T14:06:52;17.30;;;10.70;;
67757;SDS011;54562;47.620;18.786;2022-11-13T14:10:13;17.10;;;10.60;;
67757;SDS011;54562;47.620;18.786;2022-11-13T14:13:27;19.00;;;10.60;;
67757;SDS011;54562;47.620;18.786;2022-11-13T14:16:46;18.80;;;10.40;;
67757;SDS011;54562;47.620;18.786;2022-11-13T14:20:13;18.40;;;10.80;;
67757;SDS011;54562;47.620;18.786;2022-11-13T14:23:26;19.50;;;10.70;;
67757;SDS011;54562;47.620;18.786;2022-11-13T14:26:46;16.20;;;9.00;;
67757;SDS011;54562;47.620;18.786;2022-11-13T14:29:56;17.40;;;11.20;;
67757;SDS011;54562;47.620;18.786;2022-11-13T14:33:09;19.80;;;12.00;;
67757;SDS011;54562;47.620;18.786;2022-11-13T14:36:27;22.90;;;12.10;;
67757;SDS011;54562;47.620;18.786;2022-11-13T14:39:46;23.60;;;12.10;;
67757;SDS011;54562;47.620;18.786;2022-11-13T14:42:56;22.70;;;12.90;;
67757;SDS011;54562;47.620;18.786;2022-11-13T14:49:48;23.40;;;12.10;;
67757;SDS011;54562;47.620;18.786;2022-11-13T14:52:59;22.70;;;12.40;;
67757;SDS011;54562;47.620;18.786;2022-11-13T14:56:10;21.50;;;12.30;;
67757;SDS011;54562;47.620;18.786;2022-11-13T14:59:28;40.90;;;23.30;;
67757;SDS011;54562;47.620;18.786;2022-11-13T15:02:37;24.60;;;12.20;;
67757;SDS011;54562;47.620;18.786;2022-11-13T15:05:53;20.70;;;11.70;;
67757;SDS011;54562;47.620;18.786;2022-11-13T15:09:02;21.60;;;12.90;;
67757;SDS011;54562;47.620;18.786;2022-11-13T15:15:27;21.60;;;11.90;;
67757;SDS011;54562;47.620;18.786;2022-11-13T15:18:37;23.10;;;13.10;;
67757;SDS011;54562;47.620;18.786;2022-11-13T15:21:46;25.30;;;13.40;;
67757;SDS011;54562;47.620;18.786;2022-11-13T15:25:19;23.10;;;13.00;;
67757;SDS011;54562;47.620;18.786;2022-11-13T15:28:31;24.20;;;13.50;;
67757;SDS011;54562;47.620;18.786;2022-11-13T15:31:48;22.20;;;12.50;;
67757;SDS011;54562;47.620;18.786;2022-11-13T15:34:56;22.20;;;13.40;;
67757;SDS011;54562;47.620;18.786;2022-11-13T15:38:04;23.30;;;13.00;;
67757;SDS011;54562;47.620;18.786;2022-11-13T15:41:14;26.00;;;14.90;;
67757;SDS011;54562;47.620;18.786;2022-11-13T15:44:49;30.20;;;16.70;;
67757;SDS011;54562;47.620;18.786;2022-11-13T15:47:58;28.80;;;17.50;;
67757;SDS011;54562;47.620;18.786;2022-11-13T15:51:06;27.40;;;14.10;;
67757;SDS011;54562;47.620;18.786;2022-11-13T15:54:26;27.60;;;15.20;;
67757;SDS011;54562;47.620;18.786;2022-11-13T15:57:45;27.50;;;15.20;;
67757;SDS011;54562;47.620;18.786;2022-11-13T16:00:53;28.80;;;16.10;;
67757;SDS011;54562;47.620;18.786;2022-11-13T16:04:10;31.00;;;16.30;;
67757;SDS011;54562;47.620;18.786;2022-11-13T16:07:24;29.40;;;17.50;;
67757;SDS011;54562;47.620;18.786;2022-11-13T16:10:54;28.10;;;16.10;;
67757;SDS011;54562;47.620;18.786;2022-11-13T16:14:02;31.50;;;18.10;;
67757;SDS011;54562;47.620;18.786;2022-11-13T16:17:13;33.50;;;17.90;;
67757;SDS011;54562;47.620;18.786;2022-11-13T16:20:24;30.00;;;16.50;;
67757;SDS011;54562;47.620;18.786;2022-11-13T16:23:32;28.90;;;17.50;;
67757;SDS011;54562;47.620;18.786;2022-11-13T16:26:42;25.70;;;15.10;;
67757;SDS011;54562;47.620;18.786;2022-11-13T16:30:14;28.60;;;15.70;;
67757;SDS011;54562;47.620;18.786;2022-11-13T16:33:23;29.40;;;17.00;;
67757;SDS011;54562;47.620;18.786;2022-11-13T16:36:40;28.80;;;16.60;;
67757;SDS011;54562;47.620;18.786;2022-11-13T16:39:49;34.80;;;18.20;;
67757;SDS011;54562;47.620;18.786;2022-11-13T16:43:06;29.00;;;17.00;;
67757;SDS011;54562;47.620;18.786;2022-11-13T16:46:20;30.00;;;17.20;;
67757;SDS011;54562;47.620;18.786;2022-11-13T16:49:40;29.80;;;16.70;;
67757;SDS011;54562;47.620;18.786;2022-11-13T16:52:47;32.00;;;16.90;;
67757;SDS011;54562;47.620;18.786;2022-11-13T16:56:11;28.40;;;16.20;;
67757;SDS011;54562;47.620;18.786;2022-11-13T16:59:21;29.30;;;16.70;;
67757;SDS011;54562;47.620;18.786;2022-11-13T17:02:37;32.00;;;17.10;;
67757;SDS011;54562;47.620;18.786;2022-11-13T17:05:45;28.90;;;16.90;;
67757;SDS011;54562;47.620;18.786;2022-11-13T17:08:59;32.30;;;17.50;;
67757;SDS011;54562;47.620;18.786;2022-11-13T17:12:09;31.50;;;17.20;;
67757;SDS011;54562;47.620;18.786;2022-11-13T17:15:21;29.20;;;16.60;;
67757;SDS011;54562;47.620;18.786;2022-11-13T17:18:29;31.10;;;16.90;;
67757;SDS011;54562;47.620;18.786;2022-11-13T17:21:38;30.60;;;16.70;;
67757;SDS011;54562;47.620;18.786;2022-11-13T17:24:48;34.80;;;17.20;;
67757;SDS011;54562;47.620;18.786;2022-11-13T17:27:56;30.30;;;16.80;;
67757;SDS011;54562;47.620;18.786;2022-11-13T17:31:07;27.10;;;16.10;;
67757;SDS011;54562;47.620;18.786;2022-11-13T17:34:25;31.70;;;17.10;;
67757;SDS011;54562;47.620;18.786;2022-11-13T17:37:33;30.60;;;17.10;;
67757;SDS011;54562;47.620;18.786;2022-11-13T17:40:42;35.70;;;18.40;;
67757;SDS011;54562;47.620;18.786;2022-11-13T17:43:50;30.40;;;17.60;;
67757;SDS011;54562;47.620;18.786;2022-11-13T17:47:05;33.20;;;17.70;;
67757;SDS011;54562;47.620;18.786;2022-11-13T17:50:13;35.20;;;18.80;;
67757;SDS011;54562;47.620;18.786;2022-11-13T17:53:31;31.90;;;17.20;;
67757;SDS011;54562;47.620;18.786;2022-11-13T17:56:39;33.40;;;19.50;;
67757;SDS011;54562;47.620;18.786;2022-11-13T17:59:47;32.10;;;18.50;;
67757;SDS011;54562;47.620;18.786;2022-11-13T18:02:57;31.90;;;17.70;;
67757;SDS011;54562;47.620;18.786;2022-11-13T18:09:17;31.40;;;18.00;;
67757;SDS011;54562;47.620;18.786;2022-11-13T18:12:27;32.10;;;18.50;;
67757;SDS011;54562;47.620;18.786;2022-11-13T18:15:35;36.50;;;20.00;;
67757;SDS011;54562;47.620;18.786;2022-11-13T18:18:46;34.50;;;20.10;;
67757;SDS011;54562;47.620;18.786;2022-11-13T18:22:00;37.90;;;20.20;;
67757;SDS011;54562;47.620;18.786;2022-11-13T18:25:10;33.90;;;20.20;;
67757;SDS011;54562;47.620;18.786;2022-11-13T18:28:18;35.70;;;20.20;;
67757;SDS011;54562;47.620;18.786;2022-11-13T18:31:34;36.10;;;20.40;;
67757;SDS011;54562;47.620;18.786;2022-11-13T18:34:42;35.80;;;20.30;;
67757;SDS011;54562;47.620;18.786;2022-11-13T18:37:50;32.80;;;18.80;;
67757;SDS011;54562;47.620;18.786;2022-11-13T18:41:08;33.90;;;20.10;;
67757;SDS011;54562;47.620;18.786;2022-11-13T18:44:25;36.20;;;20.90;;
67757;SDS011;54562;47.620;18.786;2022-11-13T18:47:33;39.00;;;21.10;;
67757;SDS011;54562;47.620;18.786;2022-11-13T18:50:43;41.50;;;22.70;;
67757;SDS011;54562;47.620;18.786;2022-11-13T18:54:01;44.20;;;23.50;;
67757;SDS011;54562;47.620;18.786;2022-11-13T18:57:18;40.90;;;20.70;;
67757;SDS011;54562;47.620;18.786;2022-11-13T19:00:27;39.10;;;21.50;;